Latest Observation

20 Stations

15 Minute Data | America/Los_Angeles
as of 4/21/24 7:55 AM PDT
Station Date Time Temp 5ft (°F) Temp 30ft (°F) Inversion (°F) RH (%) Dew Pt (°F) Wind Spd (mph) Wind Gust (mph) Solar Rad (W/m2) Daily Min Temp (°F) Daily Max Temp (°F) Daily Rain (In) Daily ETo (in)
Shandon ETo (SLO-1) 4/21/24 0745 50.2   4.8 50.3   5.1 0.1 90   8 47.5   2.5 0.0   0.0 0.0   0.0 222   94 43.3   2.5 50.9   2.9 0.00 0.000   0.000
Creston Rd (SLO-2) 4/21/24 0745 51.8   5.4 52.2   6.0 0.4 81   19 46.1   0.3 0.0   0.0 1.4   1.4 204   134 41.6   0.0 54.2   6.8 0.00 0.000   0.000
NE Paso Robles (SLO-3) 4/21/24 0745 49.7   2.1 50.0   2.8 0.3 96   4 48.6   1.1 0.0   0.1 0.0   2.4 219   158 42.6   0.3 51.2   2.6 0.00 0.000   0.000
Cross Canyon Rd (SLO-4) 4/21/24 0745 51.5   3.5 51.3   3.6 -0.2 84   16 46.9   1.0 0.2   0.2 2.4   2.4 220   154 41.1   1.2 52.2   3.9 0.00 0.000   0.000
Willow Creek (SLO-5) 4/21/24 0745 50.7   6.0 52.3   7.5 1.6 80   18 44.9   0.6 0.0   0.0 0.0   0.0 227   117 41.1   1.7 60.6   15.3 0.00 0.000   0.000
Shell Creek Rd (SLO-6) 4/21/24 0745 50.6   2.1 50.5   1.3 -0.1 94   2 49.1   1.5 0.0   0.0 0.0   0.0 232   20 37.6   0.0 52.1   1.9 0.00 0.000   0.000
South Shandon (SLO-7) 4/21/24 0745 54.0   8.3 52.0   6.8 -1.9 81   6 48.2   6.4 0.0   0.0 0.0   1.7 216   93 39.1   1.1 55.2   8.3 0.00 0.000   0.000
South Creston (SLO-8) 4/21/24 0745 52.2   6.0 51.7   5.8 -0.6 80   20 46.2   0.1 0.0   0.0 0.0   1.7 222   142 39.4   0.0 55.2   8.4 0.00 0.000   0.000
Pozo Rd (SLO-9) 4/21/24 0745 47.0   2.6 46.5   2.2 -0.5 96   4 46.0   1.6 0.0   0.0 0.0   0.0 213   130 37.6   0.7 49.9   4.9 0.00 0.000   0.000
Experimental Station (SLO-10) 4/21/24 0745 49.9   2.5 50.7   3.7 0.8 79   19 43.8   3.2 2.2   0.9 4.4   0.7 211   170 42.8   0.3 53.5   4.9 0.00 0.000   0.000
Vineyard Drive (SLO-11) 4/21/24 0745 52.8   8.3 53.5   9.1 0.6 82   17 47.5   3.2 0.4   0.4 2.1   1.3 210   83 40.1   2.6 55.0   9.8 0.00 0.000   0.000
Von Dollen Road (SLO-12) 4/21/24 0745 53.4   6.6 51.6   5.3 -1.8 87   7 49.6   4.4 0.0   0.0 0.0   0.0 194   117 43.6   0.5 54.7   6.1 0.00 0.000   0.000
Templeton Gap West (SLO-13) 4/21/24 0745 52.5   5.8 52.7   6.2 0.2 87   13 48.8   2.1 0.0   0.0 0.0   1.4 218   150 38.9   0.2 54.1   7.1 0.00 0.000   0.000
Orcutt Road (SLO-14) 4/21/24 0745 58.1   7.7 57.6   7.4 -0.6 74   24 49.9   0.0 0.7   0.1 4.1   1.3 203   161 47.4   2.0 60.8   10.0 0.00 0.000   0.000
Tiffany Ranch Rd (SLO-15) 4/21/24 0745 58.0   6.9 58.5   7.8 0.5 77   21 50.9   0.2 0.0   0.0 0.0   0.0 222   175 45.9   4.2 58.7   6.9 0.00 0.000   0.000
Chimney Rock Rd (SLO-16) 4/21/24 0745 46.6   1.4 53.6   8.4 7.0 94   5 45.1   0.0 0.0   0.0 0.0   0.0 55   46 41.8   1.2 48.8   1.2 0.00 0.000   0.000
Nipomo Mesa (SLO-17) 4/21/24 0745 65.6   14.4 67.2   16.6 1.6 53   44 47.8   2.5 0.7   0.3 7.8   4.7 85   12 45.9   4.3 66.7   14.3 0.00 0.000   0.000
Morro Creek (SLO-18) 4/21/24 0745 52.8   1.9 52.5   1.9 -0.3 99   1 52.5   2.0 0.0   0.0 0.0   0.0 201   124 42.3   7.9 54.0   2.6 0.00 0.000   0.000
Paso Robles Airport ETo 4/21/24 0745 49.4   1.7 49.8   2.4 0.4 91   8 46.9   0.4 0.0   0.3 0.0   3.1 227   177 42.2   0.7 52.8   4.3 0.00 0.000   0.000
West Shandon (SLO-20) 4/21/24 0745 50.7   4.0 50.8   4.4 0.2 90   2 47.8   3.4 1.6   1.6 3.8   2.3 225   109 41.8   1.4 51.7   4.3 0.00 0.000   0.000
Max     65.6 67.2 7.0 99 52.5 2.2 7.8 232 47.4 66.7 0.00 0.000
Avg     52.4 52.8 0.4 85 47.7 0.3 1.3 201 - - - -
Min     46.6 46.5 -1.9 53 43.8 0.0 0.0 55 37.6 48.8 0.00 0.000